Time;durP1;ratioP1;P1;durP2;ratioP2;P2;SDS_P1;SDS_P2;PMS_P1;PMS_P2;Temp;Humidity;BMP_temperature;BMP_pressure;BME280_temperature;BME280_humidity;BME280_pressure;Samples;Min_cycle;Max_cycle;Signal;HPM_P1;HPM_P2
2021/11/15 00:00:26;;;;;;;36.92;19.80;;;9.60;78.40;;;;;;4402990;29;20051;-69
2021/11/15 00:03:03;;;;;;;29.55;17.30;;;9.70;78.50;;;;;;4402033;29;20063;-70
2021/11/15 00:05:19;;;;;;;30.50;17.60;;;9.60;78.30;;;;;;4402523;29;20089;-69
2021/11/15 00:07:36;;;;;;;25.92;16.92;;;9.60;78.30;;;;;;4403520;29;20054;-70
2021/11/15 00:09:52;;;;;;;33.17;18.38;;;9.70;78.20;;;;;;4402571;29;20097;-69
2021/11/15 00:12:09;;;;;;;33.47;18.65;;;9.70;78.20;;;;;;4403654;29;20068;-70
2021/11/15 00:14:27;;;;;;;34.78;19.27;;;9.60;78.20;;;;;;4402682;29;20147;-69
2021/11/15 00:16:44;;;;;;;62.83;33.25;;;9.60;78.20;;;;;;4402930;29;20078;-70
2021/11/15 00:19:01;;;;;;;79.65;45.30;;;9.70;78.20;;;;;;4403576;29;20428;-70
2021/11/15 00:21:17;;;;;;;30.90;18.95;;;9.70;78.20;;;;;;4402956;29;20058;-70
2021/11/15 00:23:33;;;;;;;35.10;19.75;;;9.70;78.20;;;;;;4400949;29;20050;-69
2021/11/15 00:25:50;;;;;;;33.97;19.15;;;9.70;78.20;;;;;;4402137;29;20090;-69
2021/11/15 00:28:07;;;;;;;33.85;19.38;;;9.70;78.20;;;;;;4403036;29;20554;-70
2021/11/15 00:30:25;;;;;;;35.80;19.88;;;9.70;78.20;;;;;;4402664;29;20046;-69
2021/11/15 00:32:45;;;;;;;32.38;19.38;;;9.70;78.20;;;;;;4407138;29;20055;-69
2021/11/15 00:35:01;;;;;;;36.10;20.92;;;9.70;78.20;;;;;;4407002;29;20047;-70
2021/11/15 00:37:20;;;;;;;37.80;21.10;;;9.70;78.30;;;;;;4406311;29;20487;-70
2021/11/15 00:39:37;;;;;;;36.45;20.88;;;9.70;78.30;;;;;;4407217;29;20454;-70
2021/11/15 00:41:53;;;;;;;36.90;20.80;;;9.70;78.30;;;;;;4406129;29;20514;-70
2021/11/15 00:44:12;;;;;;;33.05;20.45;;;9.70;78.40;;;;;;4405334;29;20051;-70
2021/11/15 00:46:30;;;;;;;39.72;21.95;;;9.70;78.30;;;;;;4407493;29;20079;-69
2021/11/15 00:48:46;;;;;;;34.05;20.40;;;9.70;78.30;;;;;;4405312;29;20145;-70
2021/11/15 00:51:03;;;;;;;39.92;21.77;;;9.70;78.40;;;;;;4407204;29;20075;-69
2021/11/15 00:53:19;;;;;;;36.97;20.98;;;9.70;78.40;;;;;;4406447;29;20093;-69
2021/11/15 00:55:38;;;;;;;36.63;21.65;;;9.70;78.40;;;;;;4407317;29;20057;-69
2021/11/15 00:57:54;;;;;;;39.65;21.92;;;9.80;78.50;;;;;;4406376;29;20418;-69
2021/11/15 01:00:15;;;;;;;36.92;22.25;;;9.80;78.50;;;;;;4407030;29;20078;-69
2021/11/15 01:02:35;;;;;;;43.17;23.90;;;9.80;78.50;;;;;;4405203;29;20093;-70
2021/11/15 01:04:52;;;;;;;32.75;19.35;;;9.80;78.50;;;;;;4406856;29;20122;-70
2021/11/15 01:07:08;;;;;;;32.83;19.35;;;9.80;78.40;;;;;;4405289;29;20046;-69
2021/11/15 01:09:25;;;;;;;33.25;20.23;;;9.80;78.50;;;;;;4406640;29;20130;-70
2021/11/15 01:11:42;;;;;;;36.42;20.08;;;9.80;78.50;;;;;;4404986;29;20427;-69
2021/11/15 01:14:01;;;;;;;35.17;20.23;;;9.80;78.40;;;;;;4405249;29;20062;-69
2021/11/15 01:16:17;;;;;;;38.00;19.80;;;9.80;78.50;;;;;;4405111;29;20475;-70
2021/11/15 01:18:39;;;;;;;39.13;20.70;;;9.80;78.50;;;;;;4406303;29;20554;-69
2021/11/15 01:20:56;;;;;;;35.03;20.23;;;9.80;78.50;;;;;;4407129;29;20491;-70
2021/11/15 01:23:13;;;;;;;37.53;21.20;;;9.80;78.50;;;;;;4406033;29;20046;-70
2021/11/15 01:25:29;;;;;;;33.47;20.35;;;9.90;78.50;;;;;;4405776;29;20055;-70
2021/11/15 01:27:46;;;;;;;32.45;19.17;;;9.80;78.50;;;;;;4402662;29;20070;-70
2021/11/15 01:30:03;;;;;;;32.75;20.27;;;9.90;78.50;;;;;;4404767;29;20074;-69
2021/11/15 01:32:19;;;;;;;34.28;20.83;;;9.80;78.50;;;;;;4402621;29;20051;-69
2021/11/15 01:34:38;;;;;;;33.42;20.90;;;9.90;78.60;;;;;;4403717;29;20518;-70
2021/11/15 01:36:54;;;;;;;33.47;20.30;;;9.90;78.60;;;;;;4404715;29;20066;-69
2021/11/15 01:39:11;;;;;;;35.20;19.60;;;9.90;78.60;;;;;;4405291;29;20043;-69
2021/11/15 01:41:27;;;;;;;34.45;19.20;;;9.90;78.60;;;;;;4405661;29;20078;-69
2021/11/15 01:43:44;;;;;;;34.45;20.23;;;9.90;78.60;;;;;;4405240;29;20081;-69
2021/11/15 01:46:01;;;;;;;29.40;18.20;;;9.90;78.60;;;;;;4404628;29;20061;-70
2021/11/15 01:48:18;;;;;;;35.15;20.05;;;9.90;78.70;;;;;;4404831;29;20522;-70
2021/11/15 01:50:38;;;;;;;35.05;20.23;;;9.90;78.60;;;;;;4406070;29;20046;-69
2021/11/15 01:52:55;;;;;;;37.42;20.67;;;9.90;78.70;;;;;;4404752;29;20073;-70
2021/11/15 01:55:12;;;;;;;33.58;20.10;;;9.90;78.70;;;;;;4404763;29;20061;-69
2021/11/15 01:57:28;;;;;;;33.38;20.08;;;9.90;78.70;;;;;;4405718;29;20051;-70
2021/11/15 01:59:46;;;;;;;33.40;19.67;;;9.90;78.70;;;;;;4405048;29;20047;-69
2021/11/15 02:02:04;;;;;;;35.80;20.58;;;9.90;78.70;;;;;;4404027;29;20066;-69
2021/11/15 02:04:20;;;;;;;31.77;19.38;;;9.90;78.80;;;;;;4404912;29;20513;-69
2021/11/15 02:06:41;;;;;;;34.13;20.42;;;9.90;78.70;;;;;;4403971;29;20070;-70
2021/11/15 02:09:01;;;;;;;34.33;19.00;;;9.90;78.70;;;;;;4404959;29;20082;-70
2021/11/15 02:11:17;;;;;;;34.40;19.92;;;9.90;78.80;;;;;;4405327;29;20129;-70
2021/11/15 02:13:34;;;;;;;32.53;19.30;;;9.90;78.80;;;;;;4406138;29;20050;-70
2021/11/15 02:15:52;;;;;;;34.95;19.27;;;9.90;78.80;;;;;;4404031;29;20479;-69
2021/11/15 02:18:09;;;;;;;34.85;21.05;;;9.90;78.80;;;;;;4404779;29;20055;-70
2021/11/15 02:20:28;;;;;;;32.72;19.48;;;9.90;78.70;;;;;;4404006;29;20051;-70
2021/11/15 02:22:48;;;;;;;34.22;20.35;;;10.00;79.60;;;;;;4405971;29;20469;-70
2021/11/15 02:25:06;;;;;;;33.78;19.70;;;9.90;79.60;;;;;;4404206;29;20134;-70
2021/11/15 02:27:23;;;;;;;34.60;19.98;;;9.90;78.80;;;;;;4404204;29;20429;-70
2021/11/15 02:29:42;;;;;;;37.22;20.73;;;9.90;78.80;;;;;;4405597;29;20078;-70
2021/11/15 02:31:59;;;;;;;35.30;20.67;;;10.00;78.90;;;;;;4405297;29;20061;-69
2021/11/15 02:34:15;;;;;;;34.63;19.40;;;9.90;78.90;;;;;;4404365;29;20512;-70
2021/11/15 02:36:33;;;;;;;34.38;21.10;;;10.00;79.00;;;;;;4404986;29;20150;-70
2021/11/15 02:38:51;;;;;;;36.38;19.92;;;9.90;78.90;;;;;;4406024;29;20054;-69
2021/11/15 02:41:08;;;;;;;36.05;21.48;;;10.00;79.00;;;;;;4404746;29;20418;-70
2021/11/15 02:43:24;;;;;;;36.42;19.55;;;10.00;79.00;;;;;;4405708;29;20521;-70
2021/11/15 02:45:42;;;;;;;35.55;19.83;;;10.00;79.00;;;;;;4403446;29;20133;-69
2021/11/15 02:47:58;;;;;;;37.28;20.25;;;10.00;79.10;;;;;;4405942;29;20071;-70
2021/11/15 02:50:20;;;;;;;36.80;20.13;;;10.00;79.00;;;;;;4404861;29;20078;-70
2021/11/15 02:52:37;;;;;;;33.10;19.58;;;10.00;79.10;;;;;;4404241;29;20135;-68
2021/11/15 02:54:57;;;;;;;36.33;20.63;;;10.00;79.00;;;;;;4403225;29;20137;-69
2021/11/15 02:57:15;;;;;;;38.08;20.33;;;9.90;79.00;;;;;;4405395;29;20487;-69
2021/11/15 02:59:35;;;;;;;35.08;20.55;;;10.00;79.20;;;;;;4405016;29;20437;-69
2021/11/15 03:01:51;;;;;;;34.13;19.10;;;9.90;79.20;;;;;;4405084;29;20053;-70
2021/11/15 03:04:10;;;;;;;36.08;19.73;;;10.00;79.20;;;;;;4403398;29;20086;-70
2021/11/15 03:06:26;;;;;;;34.00;19.63;;;10.00;79.30;;;;;;4403554;29;20134;-69
2021/11/15 03:08:47;;;;;;;33.28;20.05;;;10.00;79.20;;;;;;4403726;29;20523;-70
2021/11/15 03:11:05;;;;;;;33.78;19.95;;;10.00;79.30;;;;;;4404810;29;20090;-70
2021/11/15 03:13:21;;;;;;;35.38;20.20;;;10.00;80.00;;;;;;4404285;29;20051;-70
2021/11/15 03:15:40;;;;;;;34.88;19.52;;;10.00;79.20;;;;;;4402907;29;20062;-70
2021/11/15 03:17:59;;;;;;;35.05;19.20;;;10.00;79.20;;;;;;4405242;29;20054;-70
2021/11/15 03:20:15;;;;;;;35.38;18.13;;;10.00;79.20;;;;;;4404185;29;20075;-69
2021/11/15 03:22:32;;;;;;;32.22;20.13;;;10.00;79.20;;;;;;4403851;29;20059;-69
2021/11/15 03:24:50;;;;;;;34.42;19.08;;;10.00;79.20;;;;;;4404115;29;20093;-70
2021/11/15 03:27:06;;;;;;;31.05;19.08;;;10.00;79.30;;;;;;4404891;29;20050;-70
2021/11/15 03:29:23;;;;;;;32.15;18.70;;;10.00;79.40;;;;;;4404110;29;20054;-70
2021/11/15 03:31:39;;;;;;;32.53;18.38;;;10.00;80.10;;;;;;4404698;29;20112;-69
2021/11/15 03:33:59;;;;;;;30.83;18.52;;;10.00;79.40;;;;;;4404308;29;20383;-70
2021/11/15 03:36:16;;;;;;;36.65;20.35;;;10.00;79.40;;;;;;4404506;29;20047;-70
2021/11/15 03:38:33;;;;;;;34.92;18.85;;;10.00;79.40;;;;;;4403311;29;20172;-70
2021/11/15 03:40:51;;;;;;;32.63;18.58;;;9.90;79.40;;;;;;4403177;29;20078;-70
2021/11/15 03:43:08;;;;;;;29.73;18.25;;;10.00;79.50;;;;;;4402944;29;20062;-70
2021/11/15 03:45:28;;;;;;;32.35;18.80;;;10.00;79.60;;;;;;4402991;29;20076;-70
2021/11/15 03:47:46;;;;;;;33.65;18.20;;;10.00;79.60;;;;;;4403137;29;20166;-70
2021/11/15 03:50:03;;;;;;;31.90;18.80;;;10.00;79.60;;;;;;4402733;29;20081;-70
2021/11/15 03:52:20;;;;;;;32.22;18.33;;;10.00;79.60;;;;;;4404703;29;20074;-70
2021/11/15 03:54:36;;;;;;;33.05;18.85;;;10.00;79.50;;;;;;4403535;29;20061;-70
2021/11/15 03:56:57;;;;;;;29.08;18.20;;;10.00;79.50;;;;;;4403410;29;20057;-70
2021/11/15 03:59:13;;;;;;;38.03;19.30;;;10.00;79.60;;;;;;4402218;29;20066;-70
2021/11/15 04:01:32;;;;;;;30.50;17.98;;;10.00;79.50;;;;;;4403260;29;20538;-70
2021/11/15 04:03:49;;;;;;;30.10;19.13;;;10.00;79.50;;;;;;4403343;29;20062;-69
2021/11/15 04:06:11;;;;;;;34.25;18.55;;;10.10;79.60;;;;;;4403895;29;20051;-70
2021/11/15 04:08:28;;;;;;;31.02;17.50;;;10.10;79.70;;;;;;4403700;29;20046;-70
2021/11/15 04:10:46;;;;;;;33.33;18.98;;;10.10;79.70;;;;;;4402967;29;20057;-70
2021/11/15 04:13:08;;;;;;;34.08;19.63;;;10.10;79.70;;;;;;4402500;29;20150;-70
2021/11/15 04:15:27;;;;;;;31.35;17.77;;;10.10;79.70;;;;;;4402837;29;20047;-69
2021/11/15 04:17:46;;;;;;;32.53;18.67;;;10.10;79.60;;;;;;4402790;29;20046;-69
2021/11/15 04:20:05;;;;;;;31.85;18.42;;;10.10;79.70;;;;;;4403975;29;20406;-69
2021/11/15 04:22:21;;;;;;;32.38;19.02;;;10.10;79.60;;;;;;4404203;29;20061;-69
2021/11/15 04:24:37;;;;;;;35.55;19.02;;;10.10;79.60;;;;;;4402289;29;20076;-69
2021/11/15 04:26:54;;;;;;;32.53;18.40;;;10.10;79.70;;;;;;4404408;29;20071;-70
2021/11/15 04:29:12;;;;;;;37.05;19.83;;;10.10;79.70;;;;;;4402143;29;20414;-70
2021/11/15 04:31:28;;;;;;;36.88;20.90;;;10.10;79.70;;;;;;4404393;29;20130;-69
2021/11/15 04:33:47;;;;;;;36.28;18.58;;;10.10;79.70;;;;;;4403285;29;20145;-70
2021/11/15 04:36:05;;;;;;;37.30;19.80;;;10.10;79.70;;;;;;4404285;29;20082;-69
2021/11/15 04:38:22;;;;;;;34.47;19.60;;;10.10;79.70;;;;;;4403392;29;20138;-69
2021/11/15 04:40:42;;;;;;;37.60;19.15;;;10.10;79.70;;;;;;4404240;29;20082;-69
2021/11/15 04:42:59;;;;;;;32.15;19.15;;;10.10;79.70;;;;;;4403675;29;20057;-69
2021/11/15 04:45:17;;;;;;;34.03;19.65;;;10.20;79.80;;;;;;4402768;29;20046;-69
2021/11/15 04:47:37;;;;;;;32.80;18.50;;;10.10;80.50;;;;;;4403795;29;20075;-70
2021/11/15 04:49:56;;;;;;;35.58;21.00;;;10.20;79.80;;;;;;4402560;29;20164;-70
2021/11/15 04:52:12;;;;;;;34.38;20.50;;;10.10;79.80;;;;;;4403635;29;20058;-70
2021/11/15 04:54:29;;;;;;;38.38;20.83;;;10.10;79.70;;;;;;4402466;29;20066;-69
2021/11/15 04:56:45;;;;;;;34.95;19.67;;;10.10;79.70;;;;;;4403727;29;20057;-69
2021/11/15 04:59:02;;;;;;;37.35;20.77;;;10.20;79.80;;;;;;4403499;29;20051;-69
2021/11/15 05:01:20;;;;;;;34.50;18.90;;;10.10;79.70;;;;;;4402701;29;20050;-70
2021/11/15 05:03:37;;;;;;;36.30;19.30;;;10.20;79.80;;;;;;4401914;29;20054;-71
2021/11/15 05:05:54;;;;;;;34.30;19.77;;;10.20;79.80;;;;;;4403088;29;20135;-70
2021/11/15 05:08:11;;;;;;;36.75;20.15;;;10.20;79.70;;;;;;4401641;29;20059;-70
2021/11/15 05:10:29;;;;;;;33.15;19.85;;;10.20;79.80;;;;;;4404189;29;20053;-70
2021/11/15 05:12:45;;;;;;;35.08;21.10;;;10.20;79.80;;;;;;4401716;29;20073;-70
2021/11/15 05:15:02;;;;;;;35.75;19.70;;;10.20;80.60;;;;;;4402786;29;20526;-70
2021/11/15 05:17:20;;;;;;;38.47;19.45;;;10.20;79.70;;;;;;4402816;29;20478;-69
2021/11/15 05:19:39;;;;;;;34.25;19.95;;;10.20;79.80;;;;;;4406212;29;20383;-69
2021/11/15 05:21:56;;;;;;;35.58;20.83;;;10.20;80.50;;;;;;4406036;29;20079;-69
2021/11/15 05:24:16;;;;;;;36.83;20.58;;;10.20;79.80;;;;;;4406736;29;20058;-69
2021/11/15 05:26:34;;;;;;;34.55;20.17;;;10.20;79.80;;;;;;4406106;29;20065;-69
2021/11/15 05:28:50;;;;;;;37.67;20.15;;;10.20;79.80;;;;;;4405246;29;20475;-69
2021/11/15 05:31:07;;;;;;;35.22;19.75;;;10.20;79.80;;;;;;4404974;29;20416;-69
2021/11/15 05:33:27;;;;;;;33.75;19.27;;;10.20;80.60;;;;;;4405096;29;20700;-70
2021/11/15 05:35:44;;;;;;;39.60;20.40;;;10.20;79.80;;;;;;4404935;29;20070;-69
2021/11/15 05:38:00;;;;;;;38.38;20.67;;;10.20;79.70;;;;;;4406003;29;20074;-70
2021/11/15 05:40:17;;;;;;;39.50;21.10;;;10.20;79.90;;;;;;4406371;29;20077;-70
2021/11/15 05:42:37;;;;;;;37.95;20.88;;;10.20;79.90;;;;;;4405612;29;20051;-69
2021/11/15 05:44:54;;;;;;;40.00;21.48;;;10.20;79.90;;;;;;4405448;29;20507;-69
2021/11/15 05:47:11;;;;;;;40.40;21.15;;;10.20;79.90;;;;;;4403918;29;20053;-69
2021/11/15 05:49:29;;;;;;;37.72;21.17;;;10.20;79.80;;;;;;4403553;29;20071;-70
2021/11/15 05:51:45;;;;;;;36.25;21.45;;;10.20;79.80;;;;;;4404255;29;20050;-68
2021/11/15 05:54:04;;;;;;;40.30;21.95;;;10.20;79.90;;;;;;4406953;29;20055;-69
2021/11/15 05:56:20;;;;;;;36.83;20.70;;;10.20;79.90;;;;;;4404392;29;20047;-68
2021/11/15 05:58:37;;;;;;;40.10;20.20;;;10.20;79.90;;;;;;4404222;29;20072;-69
2021/11/15 06:00:56;;;;;;;40.40;20.30;;;10.20;79.90;;;;;;4402295;29;20125;-69
2021/11/15 06:03:13;;;;;;;36.75;21.67;;;10.20;80.00;;;;;;4402793;29;20139;-70
2021/11/15 06:05:31;;;;;;;34.22;19.10;;;10.20;80.00;;;;;;4402320;29;20042;-70
2021/11/15 06:07:48;;;;;;;42.45;20.83;;;10.20;79.90;;;;;;4403953;29;20532;-69
2021/11/15 06:10:06;;;;;;;37.17;20.20;;;10.20;79.90;;;;;;4403840;29;20093;-69
2021/11/15 06:12:23;;;;;;;37.20;20.15;;;10.20;79.90;;;;;;4404396;29;20525;-69
2021/11/15 06:14:40;;;;;;;37.15;20.52;;;10.20;79.90;;;;;;4404336;29;20057;-69
2021/11/15 06:16:56;;;;;;;40.67;21.52;;;10.20;79.90;;;;;;4404030;29;20078;-70
2021/11/15 06:19:13;;;;;;;38.03;21.17;;;10.20;79.80;;;;;;4405984;29;20051;-70
2021/11/15 06:21:31;;;;;;;41.47;22.13;;;10.20;79.90;;;;;;4405157;29;20122;-70
2021/11/15 06:23:47;;;;;;;36.33;20.55;;;10.20;79.90;;;;;;4405362;29;20556;-69
2021/11/15 06:26:04;;;;;;;36.75;21.15;;;10.30;80.00;;;;;;4402933;29;20054;-71
2021/11/15 06:28:23;;;;;;;37.75;21.45;;;10.20;79.90;;;;;;4403550;29;20589;-70
2021/11/15 06:30:42;;;;;;;34.17;20.77;;;10.30;79.90;;;;;;4401464;29;20085;-69
2021/11/15 06:33:00;;;;;;;34.58;20.52;;;10.30;79.90;;;;;;4402244;29;20057;-70
2021/11/15 06:35:16;;;;;;;41.35;21.45;;;10.40;79.90;;;;;;4402972;29;20491;-69
2021/11/15 06:37:35;;;;;;;37.42;20.30;;;10.40;79.80;;;;;;4402368;29;20070;-70
2021/11/15 06:39:51;;;;;;;35.25;19.20;;;10.40;79.80;;;;;;4404463;29;20126;-70
2021/11/15 06:42:08;;;;;;;34.58;19.63;;;10.40;79.70;;;;;;4405579;29;20071;-69
2021/11/15 06:44:26;;;;;;;36.00;20.45;;;10.40;79.70;;;;;;4403671;29;20081;-70
2021/11/15 06:46:42;;;;;;;34.97;18.15;;;10.40;79.70;;;;;;4403954;29;20049;-70
2021/11/15 06:48:59;;;;;;;44.08;22.75;;;10.50;79.80;;;;;;4404953;29;20050;-70
2021/11/15 06:51:25;;;;;;;43.60;21.92;;;10.50;79.80;;;;;;4405028;29;20054;-69
2021/11/15 06:53:45;;;;;;;39.38;21.15;;;10.50;79.70;;;;;;4405131;29;20520;-70
2021/11/15 06:56:01;;;;;;;36.72;20.55;;;10.50;79.60;;;;;;4404041;29;20043;-70
2021/11/15 06:58:25;;;;;;;37.10;20.33;;;10.60;79.60;;;;;;4404355;29;20186;-70
2021/11/15 07:00:42;;;;;;;36.17;19.10;;;10.60;79.60;;;;;;4404211;29;20058;-70
2021/11/15 07:02:59;;;;;;;40.63;20.58;;;10.60;79.60;;;;;;4403993;29;20069;-70
2021/11/15 07:05:16;;;;;;;39.53;21.10;;;10.60;79.60;;;;;;4402632;29;20087;-70
2021/11/15 07:07:32;;;;;;;38.38;21.05;;;10.60;79.60;;;;;;4405553;29;20491;-70
2021/11/15 07:09:50;;;;;;;41.67;22.65;;;10.60;79.60;;;;;;4402795;29;20051;-71
2021/11/15 07:12:07;;;;;;;41.55;22.88;;;10.60;79.60;;;;;;4403788;29;20487;-70
2021/11/15 07:14:23;;;;;;;40.88;22.52;;;10.60;79.60;;;;;;4404483;29;20054;-69
2021/11/15 07:16:40;;;;;;;48.20;23.65;;;10.60;79.60;;;;;;4405283;29;20475;-67
2021/11/15 07:18:57;;;;;;;45.25;25.48;;;10.60;79.50;;;;;;4403044;29;20062;-69
2021/11/15 07:21:13;;;;;;;45.42;25.77;;;10.60;79.50;;;;;;4404568;29;20053;-70
2021/11/15 07:23:30;;;;;;;49.55;25.98;;;10.70;79.60;;;;;;4403223;29;20046;-70
2021/11/15 07:25:48;;;;;;;46.63;25.20;;;10.70;79.60;;;;;;4404594;29;20549;-70
2021/11/15 07:28:07;;;;;;;48.10;25.25;;;10.70;79.60;;;;;;4403266;29;20061;-70
2021/11/15 07:30:24;;;;;;;51.95;27.45;;;10.70;79.50;;;;;;4402860;29;20051;-70
2021/11/15 07:32:41;;;;;;;49.92;27.27;;;10.70;79.50;;;;;;4403367;29;20161;-69
2021/11/15 07:34:57;;;;;;;48.22;26.13;;;10.70;79.40;;;;;;4403745;29;20304;-69
2021/11/15 07:37:14;;;;;;;50.75;27.10;;;10.80;79.50;;;;;;4405142;29;20158;-69
2021/11/15 07:39:37;;;;;;;51.47;27.63;;;10.80;79.40;;;;;;4402393;29;20100;-69
2021/11/15 07:41:55;;;;;;;49.08;27.88;;;10.80;79.40;;;;;;4404182;29;20141;-70
2021/11/15 07:44:12;;;;;;;52.20;28.50;;;10.80;79.30;;;;;;4402337;29;20057;-69
2021/11/15 07:46:28;;;;;;;48.45;26.42;;;10.90;79.30;;;;;;4404789;29;20078;-69
2021/11/15 07:48:45;;;;;;;53.25;28.88;;;10.90;79.20;;;;;;4402160;29;20134;-70
2021/11/15 07:51:01;;;;;;;51.72;28.55;;;10.90;79.10;;;;;;4403414;29;20061;-69
2021/11/15 07:53:18;;;;;;;51.72;29.75;;;11.00;79.10;;;;;;4402484;29;20071;-69
2021/11/15 07:55:35;;;;;;;56.75;30.05;;;11.00;79.00;;;;;;4403252;29;20053;-69
2021/11/15 07:57:53;;;;;;;52.25;29.80;;;11.00;79.00;;;;;;4403342;29;20058;-69
2021/11/15 08:00:13;;;;;;;52.47;30.00;;;11.00;79.00;;;;;;4404404;29;20054;-69
2021/11/15 08:02:29;;;;;;;52.15;29.58;;;11.10;79.00;;;;;;4403737;29;20059;-69
2021/11/15 08:04:48;;;;;;;52.72;30.30;;;11.10;78.90;;;;;;4402779;29;20119;-69
2021/11/15 08:07:06;;;;;;;48.80;29.67;;;11.20;78.60;;;;;;4402848;29;20089;-70
2021/11/15 08:09:22;;;;;;;52.00;29.80;;;11.30;78.50;;;;;;4403250;29;20059;-70
2021/11/15 08:11:43;;;;;;;46.17;28.88;;;11.50;78.30;;;;;;4404332;29;20073;-69
2021/11/15 08:14:01;;;;;;;53.80;31.17;;;11.60;78.10;;;;;;4402217;29;20074;-70
2021/11/15 08:16:17;;;;;;;53.40;31.17;;;11.70;77.70;;;;;;4404573;29;20459;-70
2021/11/15 08:18:36;;;;;;;55.92;32.25;;;11.80;77.50;;;;;;4401987;29;20136;-70
2021/11/15 08:20:55;;;;;;;58.58;32.80;;;11.90;77.20;;;;;;4403146;29;20522;-72
2021/11/15 08:23:15;;;;;;;48.00;29.73;;;11.90;77.00;;;;;;4401934;29;20054;-70
2021/11/15 08:26:02;;;;;;;55.30;30.83;;;12.00;76.80;;;;;;4403239;29;20456;-71
2021/11/15 08:28:20;;;;;;;56.13;30.27;;;12.00;76.40;;;;;;4401289;29;20081;-69
2021/11/15 08:30:39;;;;;;;56.85;31.38;;;12.00;76.30;;;;;;4402987;29;20053;-70
2021/11/15 08:32:56;;;;;;;54.33;31.30;;;12.10;76.30;;;;;;4401617;29;20043;-70
2021/11/15 08:35:13;;;;;;;50.60;31.30;;;12.10;76.20;;;;;;4401673;29;20087;-70
2021/11/15 08:37:29;;;;;;;51.88;29.13;;;12.10;76.20;;;;;;4401949;29;20051;-71
2021/11/15 08:39:45;;;;;;;112.30;62.88;;;12.10;76.00;;;;;;4400938;29;20530;-71
2021/11/15 08:42:09;;;;;;;51.17;30.35;;;12.20;76.80;;;;;;4402273;29;20467;-69
2021/11/15 08:44:27;;;;;;;158.63;77.70;;;12.20;75.70;;;;;;4402448;29;20103;-70
2021/11/15 08:46:47;;;;;;;58.88;33.45;;;12.30;75.70;;;;;;4402100;29;20078;-70
2021/11/15 08:49:06;;;;;;;74.75;41.30;;;12.30;75.70;;;;;;4401993;29;20053;-69
2021/11/15 08:51:24;;;;;;;48.70;29.15;;;12.40;75.50;;;;;;4402309;29;20418;-71
2021/11/15 08:53:41;;;;;;;45.03;27.67;;;12.40;75.30;;;;;;4405259;29;20673;-69
2021/11/15 08:55:58;;;;;;;50.95;28.52;;;12.50;75.30;;;;;;4405149;29;20051;-70
2021/11/15 08:58:14;;;;;;;50.50;27.83;;;12.50;75.10;;;;;;4404355;29;20078;-70
2021/11/15 09:00:31;;;;;;;46.58;28.05;;;12.50;74.90;;;;;;4404955;29;20111;-70
2021/11/15 09:02:49;;;;;;;49.22;27.45;;;12.60;74.70;;;;;;4405538;29;20086;-70
2021/11/15 09:05:06;;;;;;;45.70;25.73;;;12.60;74.50;;;;;;4406391;29;20051;-70
2021/11/15 09:07:23;;;;;;;45.42;26.75;;;12.60;74.30;;;;;;4404368;29;20053;-68
2021/11/15 09:09:40;;;;;;;46.83;26.30;;;12.70;74.30;;;;;;4405849;29;20125;-70
2021/11/15 09:11:58;;;;;;;45.15;24.83;;;12.70;74.10;;;;;;4405670;29;20050;-70
2021/11/15 09:14:19;;;;;;;51.50;26.45;;;12.80;74.00;;;;;;4404102;29;20124;-70
2021/11/15 09:16:35;;;;;;;46.60;27.13;;;12.80;73.70;;;;;;4405093;29;20074;-70
2021/11/15 09:18:53;;;;;;;44.88;25.48;;;12.80;73.60;;;;;;4403703;29;20091;-71
2021/11/15 09:21:10;;;;;;;43.17;26.02;;;12.80;73.40;;;;;;4406115;29;20089;-71
2021/11/15 09:23:27;;;;;;;48.28;26.48;;;12.80;73.40;;;;;;4405139;29;20074;-70
2021/11/15 09:25:44;;;;;;;45.05;25.65;;;12.80;73.40;;;;;;4404832;29;20133;-70
2021/11/15 09:28:01;;;;;;;40.42;24.73;;;12.90;73.40;;;;;;4404846;29;20053;-70
2021/11/15 09:30:20;;;;;;;46.58;25.00;;;12.90;74.10;;;;;;4404946;29;20082;-70
2021/11/15 09:32:37;;;;;;;47.50;26.45;;;13.00;73.30;;;;;;4404406;29;20055;-70
2021/11/15 09:34:55;;;;;;;44.60;25.40;;;13.00;73.10;;;;;;4405791;29;20055;-70
2021/11/15 09:37:13;;;;;;;47.10;27.55;;;13.00;72.90;;;;;;4405582;29;20046;-69
2021/11/15 09:39:29;;;;;;;51.47;26.17;;;13.10;72.90;;;;;;4405295;29;20055;-69
2021/11/15 09:41:46;;;;;;;48.55;26.40;;;13.10;72.70;;;;;;4404879;29;20055;-69
2021/11/15 09:44:03;;;;;;;45.88;26.33;;;13.10;72.60;;;;;;4404040;29;20547;-69
2021/11/15 09:46:22;;;;;;;46.10;25.75;;;13.10;72.60;;;;;;4404885;29;20051;-70
2021/11/15 09:48:41;;;;;;;45.70;27.10;;;13.20;72.60;;;;;;4404940;29;20059;-69
2021/11/15 09:50:59;;;;;;;49.08;26.98;;;13.20;72.20;;;;;;4405534;29;20540;-69
2021/11/15 09:53:16;;;;;;;50.63;26.50;;;13.20;71.90;;;;;;4403461;29;20563;-70
2021/11/15 09:55:37;;;;;;;44.50;26.10;;;13.20;71.90;;;;;;4405380;29;20047;-69
2021/11/15 09:57:54;;;;;;;48.55;25.85;;;13.30;72.00;;;;;;4403292;29;20062;-70
2021/11/15 10:00:14;;;;;;;45.00;26.45;;;13.30;71.90;;;;;;4405390;29;20065;-69
2021/11/15 10:02:30;;;;;;;44.67;25.23;;;13.40;71.70;;;;;;4403923;29;20074;-71
2021/11/15 10:04:49;;;;;;;45.67;25.95;;;13.40;71.50;;;;;;4403614;29;20105;-69
2021/11/15 10:07:07;;;;;;;53.35;27.17;;;13.50;71.40;;;;;;4402812;29;20051;-70
2021/11/15 10:09:28;;;;;;;42.45;25.63;;;13.50;71.30;;;;;;4404029;29;20058;-69
2021/11/15 10:11:47;;;;;;;44.35;25.55;;;13.50;71.20;;;;;;4403147;29;20051;-69
2021/11/15 10:14:05;;;;;;;41.60;24.42;;;13.60;71.20;;;;;;4403608;29;20069;-69
2021/11/15 10:16:24;;;;;;;43.50;24.95;;;13.60;71.10;;;;;;4404422;29;20069;-69
2021/11/15 10:18:53;;;;;;;45.50;25.52;;;13.70;70.90;;;;;;4403861;29;20076;-69
2021/11/15 10:21:12;;;;;;;47.00;25.83;;;13.70;70.70;;;;;;4404498;29;20154;-69
2021/11/15 10:23:37;;;;;;;45.50;25.85;;;13.70;71.40;;;;;;4404269;29;20073;-69
2021/11/15 10:25:58;;;;;;;40.92;25.02;;;13.80;70.60;;;;;;4404028;29;20061;-70
2021/11/15 10:28:22;;;;;;;42.83;25.13;;;13.80;70.40;;;;;;4402525;29;20051;-69
2021/11/15 10:30:43;;;;;;;45.70;26.60;;;13.80;70.30;;;;;;4404131;29;20085;-69
2021/11/15 10:33:07;;;;;;;41.80;23.25;;;13.80;70.20;;;;;;4403713;29;20077;-69
2021/11/15 10:35:40;;;;;;;46.55;25.83;;;13.90;70.20;;;;;;4404892;29;20057;-69
2021/11/15 10:37:56;;;;;;;43.28;25.67;;;13.90;70.10;;;;;;4402665;29;20066;-70
2021/11/15 10:40:20;;;;;;;45.58;25.52;;;13.90;70.10;;;;;;4405136;29;20411;-69
2021/11/15 10:42:39;;;;;;;43.95;26.02;;;13.90;70.00;;;;;;4403120;29;20534;-69
2021/11/15 10:44:58;;;;;;;43.78;25.23;;;13.90;69.80;;;;;;4404140;29;20533;-70
2021/11/15 10:47:16;;;;;;;44.17;24.20;;;13.90;69.90;;;;;;4403417;29;20074;-69
2021/11/15 10:49:33;;;;;;;43.67;25.30;;;13.90;69.80;;;;;;4404373;29;20050;-70
2021/11/15 10:51:53;;;;;;;42.20;24.45;;;14.00;69.90;;;;;;4405301;29;20057;-70
2021/11/15 10:54:28;;;;;;;46.63;24.20;;;14.00;69.60;;;;;;4404385;29;20071;-69
2021/11/15 10:56:52;;;;;;;46.17;26.10;;;14.00;69.40;;;;;;4405309;29;20518;-68
2021/11/15 10:59:15;;;;;;;39.90;23.98;;;14.00;69.20;;;;;;4404178;29;20051;-69
2021/11/15 11:01:33;;;;;;;44.67;26.52;;;14.10;69.20;;;;;;4405383;29;20545;-67
2021/11/15 11:03:50;;;;;;;49.08;29.25;;;14.00;69.20;;;;;;4404236;29;20062;-70
2021/11/15 11:06:13;;;;;;;52.25;28.73;;;14.00;69.20;;;;;;4404988;29;20061;-69
2021/11/15 11:08:40;;;;;;;170.32;89.05;;;14.00;69.20;;;;;;4403748;29;20054;-70
2021/11/15 11:11:02;;;;;;;45.63;27.98;;;14.00;69.20;;;;;;4404611;29;20078;-70
2021/11/15 11:13:26;;;;;;;42.33;25.55;;;14.00;69.30;;;;;;4403789;29;20047;-69
2021/11/15 11:15:46;;;;;;;44.60;24.48;;;14.00;69.00;;;;;;4402370;29;20514;-69
2021/11/15 11:18:09;;;;;;;41.63;25.85;;;14.10;68.90;;;;;;4405170;29;20058;-70
2021/11/15 11:20:31;;;;;;;46.33;26.20;;;14.10;68.70;;;;;;4403869;29;20047;-69
2021/11/15 11:23:18;;;;;;;48.10;25.80;;;14.10;68.80;;;;;;4404163;29;20074;-69
2021/11/15 11:25:35;;;;;;;44.80;25.48;;;14.10;68.70;;;;;;4402887;29;20103;-69
2021/11/15 11:27:56;;;;;;;44.25;25.42;;;14.10;68.50;;;;;;4403603;29;20533;-68
2021/11/15 11:30:15;;;;;;;48.17;25.75;;;14.20;68.60;;;;;;4405108;29;20431;-68
2021/11/15 11:32:33;;;;;;;45.22;24.80;;;14.20;68.60;;;;;;4404344;29;20062;-69
2021/11/15 11:34:51;;;;;;;45.95;25.23;;;14.20;68.20;;;;;;4403192;29;20074;-69
2021/11/15 11:37:11;;;;;;;45.10;25.95;;;14.20;68.20;;;;;;4402632;29;20414;-70
2021/11/15 11:39:27;;;;;;;46.83;27.08;;;14.30;68.10;;;;;;4404491;29;20062;-68
2021/11/15 11:41:49;;;;;;;46.17;27.98;;;14.30;67.80;;;;;;4403626;29;20081;-69